Aérodrome :
LOGIN :

S'inscrire | Disclaimer

   EN    FR    IT 

 










Légende :    VFR   VFR Marginal   IFR   IFR Intensif   IFR Très Intensif
Visi : 
Plafond : 
>= 8 km
>= 3000ft
5 à 8 km
1000 à 3000 ft
1500m à 5 km
500 à 1000 ft
800 à 1500m
200 à 500 ft
< 800m
< 200 ft
Symboles :   Orages  Brouillard  Fortes neiges  Fortes précipitations  Vent > 20 kt
SIGMETs :   Divers  Orages  Givrage  Turbulence  Onde Orograph.  Cendres Volcan.







- Altitude de l'aérodrome : 313 ft
- Voir les cartes d'approche


LFQA - Reims-Prunay

DERNIER METAR :
  • 230430Z AUTO 18011KT CAVOK 11/06 Q1002

METARs EXPIRÉS :
  • 230400Z AUTO 18012KT CAVOK 11/05 Q1002
  • 230330Z AUTO 18009KT 140V260 CAVOK 11/05 Q1002
  • 230300Z AUTO VRB05KT CAVOK 10/05 Q1003
  • 230230Z AUTO 09008KT 060V150 CAVOK 08/05 Q1003
  • 230200Z AUTO 09012KT CAVOK 08/04 Q1003

TAF N/A
Pas de NOTAMs connus pour ce terrain.
1 SIGMET publié pour la FIR Paris (LFFF) :
 
Turbulence forte
LFFF SIGMET 1 VALID 230300/230700 LFPW
LFFF PARIS FIR/UIR SEV TURB FCST NW OF LINE N5100 E00245 - N4800 W00015 SFC/FL060 MOV NE 30KT NC=



MET'MAP, la Météo Aéronautique d'un coup d'oeil ! - Copyright ORBIFLY Décembre 2007 - Disclaimer

ORBIFLY MET'MAP TEAM :

Programmation & Développement : Alexandra Zaïnal
Conception & Développement : Baudouin d'Aumeries
Co-Programmation & Développement : Marc-Olivier Méhu
Soutien technique & logistique : Manuel Goepfert

Contact : metmap@orbifly.com




SOURCES & CREDITS :

   NOAA